BTK6886 WIII-WIMM
Flight info
| Callsign | BTK6886 |
|---|---|
| Flight time | N/A |
| Altitude | 38000 |
| Route | GOMEL T10 AKPER |
| Aircraft | A20N/M-SDE2E3FGHIRWXY/LB1 |
Departure
| Time | 2026-05-04 13:11 |
|---|---|
| Airport | Soekarno-Hatta International Airport (WIII) |
Arrival
| Time | N/A |
|---|---|
| Airport | Kualanamu International Airport (WIMM) |
| Time | Latitude | Longitude | Altitude | Speed | Heading |
|---|---|---|---|---|---|
| 2026-05-04 12:43 | -6.13287 | 106.65728 | 43 ft | 0 kts | 295° |
| 2026-05-04 12:56 | -6.13288 | 106.65731 | 43 ft | 2 kts | 296° |
| 2026-05-04 12:57 | -6.13295 | 106.65745 | 43 ft | 2 kts | 295° |
| 2026-05-04 12:57 | -6.13301 | 106.65758 | 43 ft | 2 kts | 298° |
| 2026-05-04 12:57 | -6.13312 | 106.65766 | 43 ft | 2 kts | 358° |
| 2026-05-04 12:57 | -6.13326 | 106.65761 | 43 ft | 2 kts | 53° |
| 2026-05-04 12:58 | -6.13329 | 106.65756 | 43 ft | 0 kts | 72° |
| 2026-05-04 12:58 | -6.13321 | 106.65773 | 43 ft | 2 kts | 70° |
| 2026-05-04 12:58 | -6.13320 | 106.65777 | 43 ft | 0 kts | 70° |
| 2026-05-04 13:05 | -6.13319 | 106.65781 | 43 ft | 1 kts | 70° |
| 2026-05-04 13:05 | -6.13314 | 106.65794 | 43 ft | 2 kts | 77° |
| 2026-05-04 13:05 | -6.13324 | 106.65815 | 43 ft | 4 kts | 143° |
| 2026-05-04 13:05 | -6.13355 | 106.65847 | 43 ft | 8 kts | 105° |
| 2026-05-04 13:06 | -6.13338 | 106.65923 | 43 ft | 13 kts | 69° |
| 2026-05-04 13:06 | -6.13299 | 106.66023 | 43 ft | 17 kts | 68° |
| 2026-05-04 13:06 | -6.13250 | 106.66143 | 43 ft | 20 kts | 67° |
| 2026-05-04 13:06 | -6.13198 | 106.66270 | 43 ft | 20 kts | 68° |
| 2026-05-04 13:07 | -6.13149 | 106.66410 | 43 ft | 22 kts | 70° |
| 2026-05-04 13:07 | -6.13085 | 106.66565 | 43 ft | 23 kts | 67° |
| 2026-05-04 13:07 | -6.13045 | 106.66664 | 43 ft | 16 kts | 69° |
| 2026-05-04 13:07 | -6.13000 | 106.66782 | 43 ft | 19 kts | 68° |
| 2026-05-04 13:08 | -6.12945 | 106.66920 | 43 ft | 22 kts | 67° |
| 2026-05-04 13:08 | -6.12886 | 106.67064 | 43 ft | 23 kts | 68° |
| 2026-05-04 13:08 | -6.12839 | 106.67184 | 43 ft | 14 kts | 68° |
| 2026-05-04 13:08 | -6.12801 | 106.67278 | 43 ft | 15 kts | 68° |
| 2026-05-04 13:09 | -6.12782 | 106.67339 | 43 ft | 3 kts | 85° |
| 2026-05-04 13:09 | -6.12801 | 106.67372 | 43 ft | 8 kts | 161° |
| 2026-05-04 13:09 | -6.12870 | 106.67397 | 43 ft | 12 kts | 160° |
| 2026-05-04 13:09 | -6.12962 | 106.67425 | 43 ft | 14 kts | 188° |
| 2026-05-04 13:10 | -6.13036 | 106.67401 | 43 ft | 7 kts | 207° |
| 2026-05-04 13:10 | -6.13070 | 106.67340 | 43 ft | 12 kts | 247° |
| 2026-05-04 13:10 | -6.13155 | 106.67124 | 43 ft | 68 kts | 248° |
| 2026-05-04 13:10 | -6.13417 | 106.66469 | 43 ft | 131 kts | 248° |
| 2026-05-04 13:11 | -6.13823 | 106.65489 | 341 ft | 154 kts | 249° |
| 2026-05-04 13:11 | -6.14199 | 106.64555 | 1067 ft | 139 kts | 250° |
| 2026-05-04 13:11 | -6.14570 | 106.63611 | 1447 ft | 154 kts | 249° |
| 2026-05-04 13:11 | -6.14995 | 106.62562 | 1831 ft | 171 kts | 248° |
| 2026-05-04 13:12 | -6.15471 | 106.61395 | 2218 ft | 191 kts | 249° |
| 2026-05-04 13:12 | -6.15998 | 106.60091 | 2823 ft | 210 kts | 249° |
| 2026-05-04 13:12 | -6.16562 | 106.58688 | 3457 ft | 228 kts | 249° |
| 2026-05-04 13:12 | -6.17185 | 106.57136 | 4109 ft | 245 kts | 249° |
| 2026-05-04 13:13 | -6.17846 | 106.55484 | 4701 ft | 266 kts | 249° |
| 2026-05-04 13:13 | -6.18552 | 106.53719 | 5592 ft | 276 kts | 248° |
| 2026-05-04 13:13 | -6.19278 | 106.51907 | 6447 ft | 281 kts | 248° |
| 2026-05-04 13:13 | -6.20018 | 106.50063 | 7338 ft | 285 kts | 248° |
| 2026-05-04 13:14 | -6.20759 | 106.48212 | 8232 ft | 288 kts | 248° |
| 2026-05-04 13:14 | -6.21480 | 106.46310 | 9091 ft | 292 kts | 255° |
| 2026-05-04 13:14 | -6.21613 | 106.44255 | 9916 ft | 296 kts | 280° |
| 2026-05-04 13:14 | -6.20895 | 106.42311 | 10648 ft | 302 kts | 303° |
| 2026-05-04 13:15 | -6.19387 | 106.40771 | 11062 ft | 319 kts | 328° |
| 2026-05-04 13:15 | -6.17279 | 106.39912 | 11452 ft | 336 kts | 344° |
| 2026-05-04 13:15 | -6.14982 | 106.39275 | 11898 ft | 352 kts | 345° |
| 2026-05-04 13:15 | -6.12600 | 106.38617 | 12597 ft | 358 kts | 345° |
| 2026-05-04 13:16 | -6.10197 | 106.37927 | 13391 ft | 361 kts | 344° |
| 2026-05-04 13:16 | -6.07768 | 106.37210 | 14148 ft | 365 kts | 344° |
| 2026-05-04 13:16 | -6.05327 | 106.36485 | 14875 ft | 368 kts | 344° |
| 2026-05-04 13:16 | -6.02850 | 106.35751 | 15589 ft | 372 kts | 344° |
| 2026-05-04 13:17 | -6.00353 | 106.35010 | 16287 ft | 376 kts | 344° |
| 2026-05-04 13:17 | -5.97792 | 106.34240 | 16976 ft | 380 kts | 344° |
| 2026-05-04 13:17 | -5.95253 | 106.33472 | 17636 ft | 383 kts | 344° |
| 2026-05-04 13:17 | -5.92690 | 106.32700 | 18279 ft | 387 kts | 344° |
| 2026-05-04 13:18 | -5.90078 | 106.31918 | 18911 ft | 390 kts | 344° |
| 2026-05-04 13:18 | -5.87477 | 106.31145 | 19518 ft | 394 kts | 344° |
| 2026-05-04 13:18 | -5.84830 | 106.30360 | 20116 ft | 397 kts | 345° |
| 2026-05-04 13:18 | -5.82198 | 106.29580 | 20660 ft | 401 kts | 345° |
| 2026-05-04 13:19 | -5.79507 | 106.28780 | 20940 ft | 402 kts | 345° |
| 2026-05-04 13:19 | -5.76810 | 106.27959 | 20973 ft | 402 kts | 342° |
| 2026-05-04 13:19 | -5.74240 | 106.26882 | 20984 ft | 402 kts | 334° |
| 2026-05-04 13:19 | -5.71834 | 106.25454 | 20992 ft | 403 kts | 326° |
| 2026-05-04 13:20 | -5.69583 | 106.23750 | 20998 ft | 404 kts | 322° |
| 2026-05-04 13:20 | -5.67379 | 106.21980 | 21001 ft | 404 kts | 322° |
| 2026-05-04 13:20 | -5.65190 | 106.20209 | 21002 ft | 404 kts | 322° |
| 2026-05-04 13:20 | -5.63023 | 106.18462 | 21003 ft | 404 kts | 322° |
| 2026-05-04 13:21 | -5.60802 | 106.16679 | 21004 ft | 404 kts | 322° |
| 2026-05-04 13:21 | -5.58601 | 106.14919 | 21004 ft | 404 kts | 322° |
| 2026-05-04 13:21 | -5.56426 | 106.13181 | 21004 ft | 404 kts | 322° |
| 2026-05-04 13:21 | -5.54224 | 106.11424 | 21004 ft | 404 kts | 322° |
| 2026-05-04 13:22 | -5.52019 | 106.09666 | 21004 ft | 404 kts | 322° |
| 2026-05-04 13:22 | -5.49818 | 106.07911 | 21004 ft | 404 kts | 322° |
| 2026-05-04 13:22 | -5.47627 | 106.06165 | 21004 ft | 404 kts | 322° |
| 2026-05-04 13:22 | -5.45406 | 106.04395 | 21004 ft | 404 kts | 322° |
| 2026-05-04 13:23 | -5.43224 | 106.02657 | 21004 ft | 404 kts | 322° |
| 2026-05-04 13:23 | -5.41022 | 106.00903 | 21004 ft | 404 kts | 322° |
| 2026-05-04 13:23 | -5.38818 | 105.99149 | 21004 ft | 404 kts | 322° |
| 2026-05-04 13:23 | -5.36610 | 105.97393 | 21004 ft | 404 kts | 322° |
| 2026-05-04 13:24 | -5.34388 | 105.95626 | 21004 ft | 404 kts | 322° |
| 2026-05-04 13:24 | -5.32205 | 105.93890 | 21004 ft | 404 kts | 322° |
| 2026-05-04 13:24 | -5.29982 | 105.92123 | 21004 ft | 404 kts | 322° |
| 2026-05-04 13:25 | -5.25584 | 105.88628 | 21004 ft | 404 kts | 322° |
| 2026-05-04 13:25 | -5.23374 | 105.86871 | 21004 ft | 404 kts | 322° |
| 2026-05-04 13:25 | -5.21190 | 105.85136 | 21004 ft | 404 kts | 322° |
| 2026-05-04 13:25 | -5.18977 | 105.83389 | 21003 ft | 404 kts | 323° |
| 2026-05-04 13:26 | -5.16688 | 105.81720 | 21080 ft | 407 kts | 325° |
| 2026-05-04 13:26 | -5.14363 | 105.80064 | 21594 ft | 411 kts | 326° |
| 2026-05-04 13:26 | -5.12045 | 105.78418 | 22242 ft | 411 kts | 326° |
| 2026-05-04 13:26 | -5.09698 | 105.76751 | 22786 ft | 414 kts | 326° |
| 2026-05-04 13:27 | -5.07328 | 105.75068 | 23271 ft | 419 kts | 326° |
| 2026-05-04 13:27 | -5.04953 | 105.73382 | 23739 ft | 423 kts | 325° |
| 2026-05-04 13:27 | -5.02532 | 105.71661 | 24205 ft | 426 kts | 325° |
| 2026-05-04 13:27 | -5.00116 | 105.69944 | 24658 ft | 430 kts | 325° |
| 2026-05-04 13:28 | -4.97673 | 105.68208 | 25102 ft | 433 kts | 325° |
| 2026-05-04 13:28 | -4.95190 | 105.66442 | 25549 ft | 436 kts | 325° |
| 2026-05-04 13:28 | -4.92702 | 105.64673 | 26037 ft | 438 kts | 325° |
| 2026-05-04 13:28 | -4.90231 | 105.62915 | 26475 ft | 440 kts | 325° |
| 2026-05-04 13:29 | -4.87722 | 105.61136 | 26880 ft | 442 kts | 325° |
| 2026-05-04 13:29 | -4.85185 | 105.59343 | 27272 ft | 445 kts | 325° |
| 2026-05-04 13:29 | -4.82644 | 105.57546 | 27656 ft | 448 kts | 325° |
| 2026-05-04 13:29 | -4.80105 | 105.55748 | 28058 ft | 449 kts | 325° |
| 2026-05-04 13:30 | -4.77566 | 105.53947 | 28573 ft | 448 kts | 325° |
| 2026-05-04 13:30 | -4.75022 | 105.52141 | 29107 ft | 446 kts | 325° |
| 2026-05-04 13:30 | -4.72488 | 105.50342 | 29612 ft | 444 kts | 325° |
| 2026-05-04 13:30 | -4.69977 | 105.48559 | 30091 ft | 443 kts | 325° |
| 2026-05-04 13:31 | -4.67475 | 105.46781 | 30559 ft | 442 kts | 325° |
| 2026-05-04 13:31 | -4.64963 | 105.44997 | 31021 ft | 441 kts | 325° |
| 2026-05-04 13:31 | -4.62464 | 105.43223 | 31474 ft | 440 kts | 326° |
| 2026-05-04 13:31 | -4.59969 | 105.41451 | 31912 ft | 439 kts | 326° |
| 2026-05-04 13:32 | -4.57495 | 105.39694 | 32330 ft | 438 kts | 326° |
| 2026-05-04 13:32 | -4.55018 | 105.37935 | 32734 ft | 437 kts | 326° |
| 2026-05-04 13:32 | -4.52537 | 105.36174 | 33125 ft | 436 kts | 326° |
| 2026-05-04 13:32 | -4.50053 | 105.34410 | 33496 ft | 435 kts | 326° |
| 2026-05-04 13:33 | -4.47566 | 105.32631 | 33850 ft | 435 kts | 326° |
| 2026-05-04 13:33 | -4.45117 | 105.30878 | 34193 ft | 434 kts | 326° |
| 2026-05-04 13:33 | -4.42671 | 105.29134 | 34526 ft | 433 kts | 326° |
| 2026-05-04 13:33 | -4.40201 | 105.27375 | 34847 ft | 432 kts | 326° |
| 2026-05-04 13:34 | -4.37747 | 105.25632 | 35152 ft | 432 kts | 326° |
| 2026-05-04 13:34 | -4.35297 | 105.23893 | 35449 ft | 431 kts | 326° |
| 2026-05-04 13:34 | -4.32875 | 105.22174 | 35731 ft | 430 kts | 326° |
| 2026-05-04 13:34 | -4.30429 | 105.20439 | 36005 ft | 430 kts | 326° |
| 2026-05-04 13:35 | -4.27985 | 105.18707 | 36257 ft | 429 kts | 326° |
| 2026-05-04 13:35 | -4.23100 | 105.15243 | 36649 ft | 431 kts | 326° |
| 2026-05-04 13:35 | -4.20644 | 105.13503 | 36821 ft | 432 kts | 326° |
| 2026-05-04 13:36 | -4.18194 | 105.11767 | 36989 ft | 433 kts | 326° |
| 2026-05-04 13:36 | -4.15726 | 105.10018 | 37157 ft | 434 kts | 326° |
| 2026-05-04 13:36 | -4.13263 | 105.08272 | 37322 ft | 435 kts | 326° |
| 2026-05-04 13:36 | -4.10801 | 105.06454 | 37482 ft | 436 kts | 323° |
| 2026-05-04 13:37 | -4.08468 | 105.04515 | 37633 ft | 437 kts | 320° |
| 2026-05-04 13:37 | -4.06211 | 105.02441 | 37784 ft | 438 kts | 318° |
| 2026-05-04 13:37 | -4.03987 | 105.00356 | 37933 ft | 439 kts | 318° |
| 2026-05-04 13:38 | -3.99547 | 104.96184 | 37975 ft | 440 kts | 318° |
| 2026-05-04 13:38 | -3.95052 | 104.91969 | 37981 ft | 440 kts | 318° |
| 2026-05-04 13:39 | -3.90554 | 104.87758 | 37982 ft | 441 kts | 318° |
| 2026-05-04 13:39 | -3.86059 | 104.83572 | 37982 ft | 441 kts | 319° |
| 2026-05-04 13:40 | -3.81549 | 104.79376 | 37982 ft | 441 kts | 318° |
| 2026-05-04 13:40 | -3.77062 | 104.75188 | 37982 ft | 441 kts | 318° |
| 2026-05-04 13:41 | -3.72570 | 104.70989 | 37982 ft | 442 kts | 318° |
| 2026-05-04 13:41 | -3.68077 | 104.66788 | 37982 ft | 441 kts | 318° |
| 2026-05-04 13:42 | -3.61343 | 104.60493 | 37982 ft | 441 kts | 318° |
| 2026-05-04 13:42 | -3.56857 | 104.56301 | 37982 ft | 441 kts | 318° |
| 2026-05-04 13:43 | -3.52378 | 104.52116 | 37982 ft | 441 kts | 318° |
| 2026-05-04 13:43 | -3.47888 | 104.47920 | 37982 ft | 441 kts | 318° |
| 2026-05-04 13:44 | -3.43415 | 104.43742 | 37982 ft | 440 kts | 318° |
| 2026-05-04 13:44 | -3.38944 | 104.39565 | 37982 ft | 440 kts | 318° |
| 2026-05-04 13:45 | -3.34450 | 104.35368 | 37982 ft | 440 kts | 318° |
| 2026-05-04 13:45 | -3.29996 | 104.31187 | 37982 ft | 440 kts | 318° |
| 2026-05-04 13:46 | -3.25532 | 104.26997 | 37982 ft | 440 kts | 318° |
| 2026-05-04 13:46 | -3.21064 | 104.22817 | 37982 ft | 440 kts | 318° |
| 2026-05-04 13:47 | -3.16570 | 104.18620 | 37982 ft | 440 kts | 318° |
| 2026-05-04 13:47 | -3.12087 | 104.14436 | 37982 ft | 439 kts | 318° |
| 2026-05-04 13:48 | -3.07647 | 104.10291 | 37982 ft | 439 kts | 318° |
| 2026-05-04 13:48 | -3.03161 | 104.06105 | 37982 ft | 439 kts | 318° |
| 2026-05-04 13:49 | -2.98691 | 104.01935 | 37982 ft | 440 kts | 318° |
| 2026-05-04 13:49 | -2.94200 | 103.97746 | 37993 ft | 440 kts | 318° |
| 2026-05-04 13:50 | -2.89714 | 103.93561 | 38001 ft | 441 kts | 318° |